sensor_id;sensor_type;location;lat;lon;timestamp;P1;durP1;ratioP1;P2;durP2;ratioP2
39998;SDS011;25696;42.646;23.368;2022-07-06T00:01:54;21.40;;;13.77;;
39998;SDS011;25696;42.646;23.368;2022-07-06T00:04:20;16.52;;;13.13;;
39998;SDS011;25696;42.646;23.368;2022-07-06T00:06:45;15.73;;;13.55;;
39998;SDS011;25696;42.646;23.368;2022-07-06T00:09:11;19.45;;;13.77;;
39998;SDS011;25696;42.646;23.368;2022-07-06T00:11:36;17.50;;;13.77;;
39998;SDS011;25696;42.646;23.368;2022-07-06T00:14:02;20.85;;;14.77;;
39998;SDS011;25696;42.646;23.368;2022-07-06T00:16:28;19.77;;;15.32;;
39998;SDS011;25696;42.646;23.368;2022-07-06T00:18:54;21.00;;;16.20;;
39998;SDS011;25696;42.646;23.368;2022-07-06T00:21:19;20.00;;;15.70;;
39998;SDS011;25696;42.646;23.368;2022-07-06T00:23:45;19.52;;;15.40;;
39998;SDS011;25696;42.646;23.368;2022-07-06T00:26:11;18.73;;;15.65;;
39998;SDS011;25696;42.646;23.368;2022-07-06T00:28:36;18.27;;;14.82;;
39998;SDS011;25696;42.646;23.368;2022-07-06T00:31:02;21.38;;;14.98;;
39998;SDS011;25696;42.646;23.368;2022-07-06T00:33:27;19.80;;;14.80;;
39998;SDS011;25696;42.646;23.368;2022-07-06T00:35:53;28.67;;;22.58;;
39998;SDS011;25696;42.646;23.368;2022-07-06T00:38:19;20.27;;;15.80;;
39998;SDS011;25696;42.646;23.368;2022-07-06T00:40:44;23.40;;;19.25;;
39998;SDS011;25696;42.646;23.368;2022-07-06T00:43:10;20.85;;;16.85;;
39998;SDS011;25696;42.646;23.368;2022-07-06T00:45:35;27.23;;;19.33;;
39998;SDS011;25696;42.646;23.368;2022-07-06T00:48:01;31.45;;;21.25;;
39998;SDS011;25696;42.646;23.368;2022-07-06T00:50:27;25.58;;;19.48;;
39998;SDS011;25696;42.646;23.368;2022-07-06T00:53:00;25.52;;;19.42;;
39998;SDS011;25696;42.646;23.368;2022-07-06T00:55:31;23.75;;;17.48;;
39998;SDS011;25696;42.646;23.368;2022-07-06T00:58:01;24.88;;;17.50;;
39998;SDS011;25696;42.646;23.368;2022-07-06T01:00:28;23.25;;;16.80;;
39998;SDS011;25696;42.646;23.368;2022-07-06T01:02:54;23.50;;;16.65;;
39998;SDS011;25696;42.646;23.368;2022-07-06T01:05:20;23.05;;;16.45;;
39998;SDS011;25696;42.646;23.368;2022-07-06T01:07:47;25.80;;;18.80;;
39998;SDS011;25696;42.646;23.368;2022-07-06T01:10:14;26.35;;;16.33;;
39998;SDS011;25696;42.646;23.368;2022-07-06T01:12:41;22.63;;;16.27;;
39998;SDS011;25696;42.646;23.368;2022-07-06T01:15:09;23.23;;;17.02;;
39998;SDS011;25696;42.646;23.368;2022-07-06T01:17:39;31.67;;;20.60;;
39998;SDS011;25696;42.646;23.368;2022-07-06T01:22:38;26.60;;;18.67;;
39998;SDS011;25696;42.646;23.368;2022-07-06T01:25:04;31.65;;;19.40;;
39998;SDS011;25696;42.646;23.368;2022-07-06T01:27:30;28.20;;;21.05;;
39998;SDS011;25696;42.646;23.368;2022-07-06T01:29:56;30.38;;;21.15;;
39998;SDS011;25696;42.646;23.368;2022-07-06T01:32:21;25.92;;;19.27;;
39998;SDS011;25696;42.646;23.368;2022-07-06T01:34:47;27.42;;;21.20;;
39998;SDS011;25696;42.646;23.368;2022-07-06T01:37:12;26.02;;;20.90;;
39998;SDS011;25696;42.646;23.368;2022-07-06T01:39:38;28.90;;;21.67;;
39998;SDS011;25696;42.646;23.368;2022-07-06T01:42:03;33.50;;;25.00;;
39998;SDS011;25696;42.646;23.368;2022-07-06T01:44:29;35.00;;;26.38;;
39998;SDS011;25696;42.646;23.368;2022-07-06T01:46:55;33.58;;;25.52;;
39998;SDS011;25696;42.646;23.368;2022-07-06T01:49:20;38.20;;;28.50;;
39998;SDS011;25696;42.646;23.368;2022-07-06T01:51:46;37.90;;;29.52;;
39998;SDS011;25696;42.646;23.368;2022-07-06T01:54:11;41.55;;;30.63;;
39998;SDS011;25696;42.646;23.368;2022-07-06T01:56:37;48.88;;;32.85;;
39998;SDS011;25696;42.646;23.368;2022-07-06T01:59:02;45.67;;;31.67;;
39998;SDS011;25696;42.646;23.368;2022-07-06T02:01:27;48.65;;;28.92;;
39998;SDS011;25696;42.646;23.368;2022-07-06T02:03:53;40.28;;;29.27;;
39998;SDS011;25696;42.646;23.368;2022-07-06T02:06:18;38.50;;;27.00;;
39998;SDS011;25696;42.646;23.368;2022-07-06T02:08:44;35.63;;;24.15;;
39998;SDS011;25696;42.646;23.368;2022-07-06T02:11:09;28.88;;;21.25;;
39998;SDS011;25696;42.646;23.368;2022-07-06T02:13:35;25.48;;;20.23;;
39998;SDS011;25696;42.646;23.368;2022-07-06T02:16:04;22.77;;;17.83;;
39998;SDS011;25696;42.646;23.368;2022-07-06T02:18:29;24.48;;;16.98;;
39998;SDS011;25696;42.646;23.368;2022-07-06T02:20:55;23.42;;;15.93;;
39998;SDS011;25696;42.646;23.368;2022-07-06T02:23:20;23.27;;;16.98;;
39998;SDS011;25696;42.646;23.368;2022-07-06T02:25:46;22.38;;;16.50;;
39998;SDS011;25696;42.646;23.368;2022-07-06T02:28:11;25.83;;;16.75;;
39998;SDS011;25696;42.646;23.368;2022-07-06T02:30:37;23.00;;;16.10;;
39998;SDS011;25696;42.646;23.368;2022-07-06T02:33:02;26.23;;;15.48;;
39998;SDS011;25696;42.646;23.368;2022-07-06T02:35:28;21.63;;;13.93;;
39998;SDS011;25696;42.646;23.368;2022-07-06T02:37:53;20.10;;;16.17;;
39998;SDS011;25696;42.646;23.368;2022-07-06T02:40:19;20.98;;;15.48;;
39998;SDS011;25696;42.646;23.368;2022-07-06T02:42:44;19.85;;;14.43;;
39998;SDS011;25696;42.646;23.368;2022-07-06T02:45:10;20.70;;;14.75;;
39998;SDS011;25696;42.646;23.368;2022-07-06T02:47:36;24.10;;;15.93;;
39998;SDS011;25696;42.646;23.368;2022-07-06T02:50:03;23.88;;;17.10;;
39998;SDS011;25696;42.646;23.368;2022-07-06T02:52:29;26.30;;;18.00;;
39998;SDS011;25696;42.646;23.368;2022-07-06T02:54:54;24.30;;;18.13;;
39998;SDS011;25696;42.646;23.368;2022-07-06T02:57:20;24.75;;;17.85;;
39998;SDS011;25696;42.646;23.368;2022-07-06T02:59:45;26.20;;;16.45;;
39998;SDS011;25696;42.646;23.368;2022-07-06T03:02:11;25.02;;;17.65;;
39998;SDS011;25696;42.646;23.368;2022-07-06T03:04:36;24.52;;;17.02;;
39998;SDS011;25696;42.646;23.368;2022-07-06T03:07:02;24.85;;;18.88;;
39998;SDS011;25696;42.646;23.368;2022-07-06T03:09:28;24.80;;;18.33;;
39998;SDS011;25696;42.646;23.368;2022-07-06T03:11:53;26.90;;;18.88;;
39998;SDS011;25696;42.646;23.368;2022-07-06T03:14:19;25.88;;;19.45;;
39998;SDS011;25696;42.646;23.368;2022-07-06T03:16:44;25.17;;;19.67;;
39998;SDS011;25696;42.646;23.368;2022-07-06T03:19:10;28.92;;;19.02;;
39998;SDS011;25696;42.646;23.368;2022-07-06T03:21:35;26.50;;;18.35;;
39998;SDS011;25696;42.646;23.368;2022-07-06T03:24:01;25.83;;;16.60;;
39998;SDS011;25696;42.646;23.368;2022-07-06T03:26:26;33.70;;;23.77;;
39998;SDS011;25696;42.646;23.368;2022-07-06T03:28:52;29.80;;;21.08;;
39998;SDS011;25696;42.646;23.368;2022-07-06T03:31:17;22.48;;;16.42;;
39998;SDS011;25696;42.646;23.368;2022-07-06T03:33:43;24.55;;;16.95;;
39998;SDS011;25696;42.646;23.368;2022-07-06T03:36:08;25.23;;;16.33;;
39998;SDS011;25696;42.646;23.368;2022-07-06T03:38:34;24.98;;;16.23;;
39998;SDS011;25696;42.646;23.368;2022-07-06T03:41:01;23.35;;;17.75;;
39998;SDS011;25696;42.646;23.368;2022-07-06T03:43:26;22.95;;;17.10;;
39998;SDS011;25696;42.646;23.368;2022-07-06T03:45:52;30.50;;;18.88;;
39998;SDS011;25696;42.646;23.368;2022-07-06T03:48:17;44.15;;;31.77;;
39998;SDS011;25696;42.646;23.368;2022-07-06T03:50:43;22.38;;;16.38;;
39998;SDS011;25696;42.646;23.368;2022-07-06T03:53:09;25.75;;;16.92;;
39998;SDS011;25696;42.646;23.368;2022-07-06T03:55:34;35.65;;;21.63;;
39998;SDS011;25696;42.646;23.368;2022-07-06T03:58:00;24.55;;;15.95;;
39998;SDS011;25696;42.646;23.368;2022-07-06T04:00:25;26.08;;;15.43;;
39998;SDS011;25696;42.646;23.368;2022-07-06T04:02:50;21.77;;;15.95;;
39998;SDS011;25696;42.646;23.368;2022-07-06T04:05:16;24.65;;;15.25;;
39998;SDS011;25696;42.646;23.368;2022-07-06T04:07:46;28.15;;;20.48;;
39998;SDS011;25696;42.646;23.368;2022-07-06T04:10:13;23.75;;;14.20;;
39998;SDS011;25696;42.646;23.368;2022-07-06T04:12:44;19.00;;;13.77;;
39998;SDS011;25696;42.646;23.368;2022-07-06T04:15:11;23.60;;;15.60;;
39998;SDS011;25696;42.646;23.368;2022-07-06T04:17:37;20.15;;;13.35;;
39998;SDS011;25696;42.646;23.368;2022-07-06T04:20:19;21.45;;;13.02;;
39998;SDS011;25696;42.646;23.368;2022-07-06T04:22:45;73.40;;;42.88;;
39998;SDS011;25696;42.646;23.368;2022-07-06T04:25:10;47.35;;;29.63;;
39998;SDS011;25696;42.646;23.368;2022-07-06T04:27:36;17.75;;;11.63;;
39998;SDS011;25696;42.646;23.368;2022-07-06T04:30:05;30.73;;;20.00;;
39998;SDS011;25696;42.646;23.368;2022-07-06T04:32:31;15.48;;;8.77;;
39998;SDS011;25696;42.646;23.368;2022-07-06T04:34:56;14.77;;;7.78;;
39998;SDS011;25696;42.646;23.368;2022-07-06T04:37:22;22.75;;;13.48;;
39998;SDS011;25696;42.646;23.368;2022-07-06T04:39:47;20.85;;;11.50;;
39998;SDS011;25696;42.646;23.368;2022-07-06T04:42:13;17.92;;;8.80;;
39998;SDS011;25696;42.646;23.368;2022-07-06T04:44:38;11.98;;;7.82;;
39998;SDS011;25696;42.646;23.368;2022-07-06T04:47:04;17.83;;;8.18;;
39998;SDS011;25696;42.646;23.368;2022-07-06T04:49:29;14.55;;;7.50;;
39998;SDS011;25696;42.646;23.368;2022-07-06T04:51:55;12.27;;;7.22;;
39998;SDS011;25696;42.646;23.368;2022-07-06T04:54:20;10.75;;;7.40;;
39998;SDS011;25696;42.646;23.368;2022-07-06T04:56:46;11.18;;;7.07;;
39998;SDS011;25696;42.646;23.368;2022-07-06T04:59:12;8.32;;;6.22;;
39998;SDS011;25696;42.646;23.368;2022-07-06T05:01:38;14.65;;;7.22;;
39998;SDS011;25696;42.646;23.368;2022-07-06T05:04:03;13.55;;;8.43;;
39998;SDS011;25696;42.646;23.368;2022-07-06T05:06:29;12.52;;;7.68;;
39998;SDS011;25696;42.646;23.368;2022-07-06T05:08:54;13.93;;;8.00;;
39998;SDS011;25696;42.646;23.368;2022-07-06T05:11:20;13.82;;;9.13;;
39998;SDS011;25696;42.646;23.368;2022-07-06T05:13:45;15.57;;;10.13;;
39998;SDS011;25696;42.646;23.368;2022-07-06T05:16:11;12.73;;;9.73;;
39998;SDS011;25696;42.646;23.368;2022-07-06T05:18:36;19.20;;;10.93;;
39998;SDS011;25696;42.646;23.368;2022-07-06T05:21:02;16.50;;;12.55;;
39998;SDS011;25696;42.646;23.368;2022-07-06T05:23:27;18.23;;;12.27;;
39998;SDS011;25696;42.646;23.368;2022-07-06T05:25:53;18.45;;;11.30;;
39998;SDS011;25696;42.646;23.368;2022-07-06T05:28:18;14.07;;;10.18;;
39998;SDS011;25696;42.646;23.368;2022-07-06T05:30:44;15.23;;;10.15;;
39998;SDS011;25696;42.646;23.368;2022-07-06T05:33:09;16.42;;;10.13;;
39998;SDS011;25696;42.646;23.368;2022-07-06T05:35:35;16.80;;;9.70;;
39998;SDS011;25696;42.646;23.368;2022-07-06T05:38:00;21.75;;;10.07;;
39998;SDS011;25696;42.646;23.368;2022-07-06T05:40:26;10.88;;;8.70;;
39998;SDS011;25696;42.646;23.368;2022-07-06T05:42:51;10.68;;;8.30;;
39998;SDS011;25696;42.646;23.368;2022-07-06T05:45:16;16.08;;;8.75;;
39998;SDS011;25696;42.646;23.368;2022-07-06T05:47:42;11.93;;;7.93;;
39998;SDS011;25696;42.646;23.368;2022-07-06T05:50:26;15.77;;;7.82;;
39998;SDS011;25696;42.646;23.368;2022-07-06T05:52:59;11.25;;;7.00;;
39998;SDS011;25696;42.646;23.368;2022-07-06T06:02:44;11.60;;;6.90;;
39998;SDS011;25696;42.646;23.368;2022-07-06T06:05:10;11.13;;;7.85;;
39998;SDS011;25696;42.646;23.368;2022-07-06T06:07:37;16.55;;;8.25;;
39998;SDS011;25696;42.646;23.368;2022-07-06T06:10:04;14.55;;;7.57;;
39998;SDS011;25696;42.646;23.368;2022-07-06T06:14:56;12.95;;;8.15;;
39998;SDS011;25696;42.646;23.368;2022-07-06T06:17:21;15.10;;;8.45;;
39998;SDS011;25696;42.646;23.368;2022-07-06T06:19:47;12.65;;;7.90;;
39998;SDS011;25696;42.646;23.368;2022-07-06T06:22:13;11.15;;;7.82;;
39998;SDS011;25696;42.646;23.368;2022-07-06T06:24:38;15.10;;;8.20;;
39998;SDS011;25696;42.646;23.368;2022-07-06T06:27:04;14.07;;;7.85;;
39998;SDS011;25696;42.646;23.368;2022-07-06T06:29:29;14.02;;;8.52;;
39998;SDS011;25696;42.646;23.368;2022-07-06T06:31:55;13.95;;;8.48;;
39998;SDS011;25696;42.646;23.368;2022-07-06T06:34:20;12.88;;;8.82;;
39998;SDS011;25696;42.646;23.368;2022-07-06T06:36:46;17.83;;;9.13;;
39998;SDS011;25696;42.646;23.368;2022-07-06T06:39:11;14.25;;;9.45;;
39998;SDS011;25696;42.646;23.368;2022-07-06T06:41:37;13.93;;;9.68;;
39998;SDS011;25696;42.646;23.368;2022-07-06T06:44:02;14.45;;;9.25;;
39998;SDS011;25696;42.646;23.368;2022-07-06T06:46:28;13.57;;;10.05;;
39998;SDS011;25696;42.646;23.368;2022-07-06T06:48:53;16.35;;;9.98;;
39998;SDS011;25696;42.646;23.368;2022-07-06T06:51:19;15.77;;;11.02;;
39998;SDS011;25696;42.646;23.368;2022-07-06T06:53:45;19.42;;;11.13;;
39998;SDS011;25696;42.646;23.368;2022-07-06T06:56:11;20.08;;;11.32;;
39998;SDS011;25696;42.646;23.368;2022-07-06T06:58:37;16.10;;;10.80;;
39998;SDS011;25696;42.646;23.368;2022-07-06T07:01:02;15.27;;;11.52;;
39998;SDS011;25696;42.646;23.368;2022-07-06T07:03:29;17.60;;;10.82;;
39998;SDS011;25696;42.646;23.368;2022-07-06T07:05:54;24.92;;;11.93;;
39998;SDS011;25696;42.646;23.368;2022-07-06T07:08:20;16.10;;;11.43;;
39998;SDS011;25696;42.646;23.368;2022-07-06T07:10:45;18.38;;;10.95;;
39998;SDS011;25696;42.646;23.368;2022-07-06T07:13:11;19.67;;;11.43;;
39998;SDS011;25696;42.646;23.368;2022-07-06T07:15:37;18.58;;;11.70;;
39998;SDS011;25696;42.646;23.368;2022-07-06T07:18:05;14.27;;;10.35;;
39998;SDS011;25696;42.646;23.368;2022-07-06T07:20:30;18.15;;;11.93;;
39998;SDS011;25696;42.646;23.368;2022-07-06T07:22:58;15.52;;;11.27;;
39998;SDS011;25696;42.646;23.368;2022-07-06T07:25:24;18.25;;;11.65;;
39998;SDS011;25696;42.646;23.368;2022-07-06T07:27:49;16.27;;;11.48;;
39998;SDS011;25696;42.646;23.368;2022-07-06T07:30:15;16.00;;;11.68;;
39998;SDS011;25696;42.646;23.368;2022-07-06T07:32:42;18.33;;;11.45;;
39998;SDS011;25696;42.646;23.368;2022-07-06T07:35:10;18.65;;;10.95;;
39998;SDS011;25696;42.646;23.368;2022-07-06T07:37:36;20.65;;;11.45;;
39998;SDS011;25696;42.646;23.368;2022-07-06T07:40:01;17.17;;;11.88;;
39998;SDS011;25696;42.646;23.368;2022-07-06T07:42:28;21.00;;;11.70;;
39998;SDS011;25696;42.646;23.368;2022-07-06T07:44:53;19.17;;;11.45;;
39998;SDS011;25696;42.646;23.368;2022-07-06T07:47:19;14.32;;;10.82;;
39998;SDS011;25696;42.646;23.368;2022-07-06T07:49:46;18.30;;;11.48;;
39998;SDS011;25696;42.646;23.368;2022-07-06T07:52:24;12.18;;;10.30;;
39998;SDS011;25696;42.646;23.368;2022-07-06T07:54:54;16.02;;;11.38;;
39998;SDS011;25696;42.646;23.368;2022-07-06T07:57:20;15.38;;;10.80;;
39998;SDS011;25696;42.646;23.368;2022-07-06T08:00:12;14.43;;;11.63;;
39998;SDS011;25696;42.646;23.368;2022-07-06T08:03:01;15.73;;;11.27;;
39998;SDS011;25696;42.646;23.368;2022-07-06T08:05:26;17.55;;;11.73;;
39998;SDS011;25696;42.646;23.368;2022-07-06T08:07:52;15.15;;;11.07;;
39998;SDS011;25696;42.646;23.368;2022-07-06T08:10:17;15.18;;;10.55;;
39998;SDS011;25696;42.646;23.368;2022-07-06T08:12:42;16.52;;;10.73;;
39998;SDS011;25696;42.646;23.368;2022-07-06T08:15:08;13.40;;;10.20;;
39998;SDS011;25696;42.646;23.368;2022-07-06T08:17:34;12.45;;;8.50;;
39998;SDS011;25696;42.646;23.368;2022-07-06T08:19:59;14.40;;;8.90;;
39998;SDS011;25696;42.646;23.368;2022-07-06T08:22:25;13.15;;;9.55;;
39998;SDS011;25696;42.646;23.368;2022-07-06T08:27:17;16.40;;;10.23;;
39998;SDS011;25696;42.646;23.368;2022-07-06T08:32:08;13.07;;;9.85;;
39998;SDS011;25696;42.646;23.368;2022-07-06T08:34:35;12.73;;;8.35;;
39998;SDS011;25696;42.646;23.368;2022-07-06T09:06:37;18.02;;;10.35;;
39998;SDS011;25696;42.646;23.368;2022-07-06T09:09:06;18.60;;;9.70;;
39998;SDS011;25696;42.646;23.368;2022-07-06T09:11:32;13.32;;;10.10;;
39998;SDS011;25696;42.646;23.368;2022-07-06T09:23:52;23.42;;;13.48;;
39998;SDS011;25696;42.646;23.368;2022-07-06T09:26:19;17.27;;;12.02;;
39998;SDS011;25696;42.646;23.368;2022-07-06T09:28:44;21.27;;;13.43;;
39998;SDS011;25696;42.646;23.368;2022-07-06T09:33:37;22.08;;;14.05;;
39998;SDS011;25696;42.646;23.368;2022-07-06T09:36:03;16.25;;;13.20;;
39998;SDS011;25696;42.646;23.368;2022-07-06T09:38:31;23.60;;;13.88;;
39998;SDS011;25696;42.646;23.368;2022-07-06T09:40:57;16.17;;;11.88;;
39998;SDS011;25696;42.646;23.368;2022-07-06T09:43:24;15.57;;;12.82;;
39998;SDS011;25696;42.646;23.368;2022-07-06T09:48:17;18.15;;;12.85;;
39998;SDS011;25696;42.646;23.368;2022-07-06T09:50:46;18.02;;;13.43;;
39998;SDS011;25696;42.646;23.368;2022-07-06T09:53:16;20.02;;;11.65;;
39998;SDS011;25696;42.646;23.368;2022-07-06T09:55:48;18.08;;;12.30;;
39998;SDS011;25696;42.646;23.368;2022-07-06T09:58:16;24.02;;;16.45;;
39998;SDS011;25696;42.646;23.368;2022-07-06T10:00:42;17.65;;;11.52;;
39998;SDS011;25696;42.646;23.368;2022-07-06T10:03:09;15.05;;;11.70;;
39998;SDS011;25696;42.646;23.368;2022-07-06T10:08:02;15.45;;;11.88;;
39998;SDS011;25696;42.646;23.368;2022-07-06T10:18:09;17.20;;;11.63;;
39998;SDS011;25696;42.646;23.368;2022-07-06T10:33:30;12.90;;;11.45;;
39998;SDS011;25696;42.646;23.368;2022-07-06T10:39:01;13.90;;;11.02;;
39998;SDS011;25696;42.646;23.368;2022-07-06T10:42:01;13.38;;;12.02;;
39998;SDS011;25696;42.646;23.368;2022-07-06T10:57:18;19.13;;;12.52;;
39998;SDS011;25696;42.646;23.368;2022-07-06T11:00:06;18.88;;;13.70;;
39998;SDS011;25696;42.646;23.368;2022-07-06T11:02:46;13.27;;;11.75;;
39998;SDS011;25696;42.646;23.368;2022-07-06T11:05:40;16.40;;;12.85;;
39998;SDS011;25696;42.646;23.368;2022-07-06T11:08:14;19.42;;;12.00;;
39998;SDS011;25696;42.646;23.368;2022-07-06T11:10:47;14.40;;;10.73;;
39998;SDS011;25696;42.646;23.368;2022-07-06T11:13:27;13.05;;;11.43;;
39998;SDS011;25696;42.646;23.368;2022-07-06T11:16:00;17.20;;;14.68;;
39998;SDS011;25696;42.646;23.368;2022-07-06T11:18:39;21.85;;;15.25;;
39998;SDS011;25696;42.646;23.368;2022-07-06T11:21:18;19.48;;;12.50;;
39998;SDS011;25696;42.646;23.368;2022-07-06T11:49:34;17.25;;;13.95;;
39998;SDS011;25696;42.646;23.368;2022-07-06T11:52:32;16.10;;;12.98;;
39998;SDS011;25696;42.646;23.368;2022-07-06T11:55:32;20.75;;;13.07;;
39998;SDS011;25696;42.646;23.368;2022-07-06T12:06:24;21.27;;;15.60;;
39998;SDS011;25696;42.646;23.368;2022-07-06T12:11:36;15.88;;;12.23;;
39998;SDS011;25696;42.646;23.368;2022-07-06T12:14:36;13.07;;;11.32;;
39998;SDS011;25696;42.646;23.368;2022-07-06T12:19:52;17.45;;;11.95;;
39998;SDS011;25696;42.646;23.368;2022-07-06T12:22:29;13.60;;;11.75;;
39998;SDS011;25696;42.646;23.368;2022-07-06T12:25:09;13.95;;;12.45;;
39998;SDS011;25696;42.646;23.368;2022-07-06T12:28:02;16.20;;;12.43;;
39998;SDS011;25696;42.646;23.368;2022-07-06T12:30:45;15.02;;;12.05;;
39998;SDS011;25696;42.646;23.368;2022-07-06T12:33:58;16.33;;;11.35;;
39998;SDS011;25696;42.646;23.368;2022-07-06T12:36:52;18.42;;;13.25;;
39998;SDS011;25696;42.646;23.368;2022-07-06T12:39:28;16.20;;;11.32;;
39998;SDS011;25696;42.646;23.368;2022-07-06T12:42:24;13.90;;;10.15;;
39998;SDS011;25696;42.646;23.368;2022-07-06T12:48:25;14.07;;;9.32;;
39998;SDS011;25696;42.646;23.368;2022-07-06T12:50:46;12.18;;;9.23;;
39998;SDS011;25696;42.646;23.368;2022-07-06T12:56:11;13.27;;;10.55;;
39998;SDS011;25696;42.646;23.368;2022-07-06T12:58:59;9.82;;;8.82;;
39998;SDS011;25696;42.646;23.368;2022-07-06T13:04:10;10.80;;;8.65;;
39998;SDS011;25696;42.646;23.368;2022-07-06T13:06:46;11.82;;;9.02;;
39998;SDS011;25696;42.646;23.368;2022-07-06T13:09:24;9.32;;;7.10;;
39998;SDS011;25696;42.646;23.368;2022-07-06T13:12:02;13.77;;;8.63;;
39998;SDS011;25696;42.646;23.368;2022-07-06T13:14:45;15.20;;;7.22;;
39998;SDS011;25696;42.646;23.368;2022-07-06T13:32:58;7.97;;;4.85;;
39998;SDS011;25696;42.646;23.368;2022-07-06T13:40:42;6.60;;;4.20;;
39998;SDS011;25696;42.646;23.368;2022-07-06T13:43:24;4.95;;;3.50;;
39998;SDS011;25696;42.646;23.368;2022-07-06T13:46:07;6.63;;;3.72;;
39998;SDS011;25696;42.646;23.368;2022-07-06T13:48:57;5.50;;;3.72;;
39998;SDS011;25696;42.646;23.368;2022-07-06T13:51:52;7.03;;;3.90;;
39998;SDS011;25696;42.646;23.368;2022-07-06T13:54:31;5.45;;;4.25;;
39998;SDS011;25696;42.646;23.368;2022-07-06T13:57:12;5.45;;;3.20;;
39998;SDS011;25696;42.646;23.368;2022-07-06T14:12:24;6.72;;;3.65;;
39998;SDS011;25696;42.646;23.368;2022-07-06T14:15:01;4.00;;;2.47;;
39998;SDS011;25696;42.646;23.368;2022-07-06T14:17:41;8.52;;;2.80;;
39998;SDS011;25696;42.646;23.368;2022-07-06T14:22:44;3.72;;;2.30;;
39998;SDS011;25696;42.646;23.368;2022-07-06T14:25:12;6.75;;;3.15;;
39998;SDS011;25696;42.646;23.368;2022-07-06T15:51:56;6.45;;;3.42;;
39998;SDS011;25696;42.646;23.368;2022-07-06T15:57:03;7.35;;;2.28;;
39998;SDS011;25696;42.646;23.368;2022-07-06T15:59:52;5.75;;;2.80;;
39998;SDS011;25696;42.646;23.368;2022-07-06T16:02:31;3.95;;;2.17;;
39998;SDS011;25696;42.646;23.368;2022-07-06T16:41:32;5.38;;;3.65;;
39998;SDS011;25696;42.646;23.368;2022-07-06T17:18:02;5.55;;;2.85;;
39998;SDS011;25696;42.646;23.368;2022-07-06T17:25:21;6.82;;;3.28;;
39998;SDS011;25696;42.646;23.368;2022-07-06T18:06:38;4.70;;;2.65;;
39998;SDS011;25696;42.646;23.368;2022-07-06T18:09:04;5.05;;;3.13;;
39998;SDS011;25696;42.646;23.368;2022-07-06T18:11:31;5.22;;;2.53;;
39998;SDS011;25696;42.646;23.368;2022-07-06T18:13:56;6.47;;;2.90;;
39998;SDS011;25696;42.646;23.368;2022-07-06T18:18:52;7.93;;;3.83;;
39998;SDS011;25696;42.646;23.368;2022-07-06T18:21:17;5.68;;;2.72;;
39998;SDS011;25696;42.646;23.368;2022-07-06T18:23:42;5.63;;;3.97;;
39998;SDS011;25696;42.646;23.368;2022-07-06T18:26:08;6.38;;;3.92;;
39998;SDS011;25696;42.646;23.368;2022-07-06T18:28:33;5.45;;;2.80;;
39998;SDS011;25696;42.646;23.368;2022-07-06T18:43:06;9.40;;;4.15;;
39998;SDS011;25696;42.646;23.368;2022-07-06T18:45:32;3.58;;;2.45;;
39998;SDS011;25696;42.646;23.368;2022-07-06T18:50:23;4.95;;;3.08;;
39998;SDS011;25696;42.646;23.368;2022-07-06T18:55:14;8.68;;;5.68;;
39998;SDS011;25696;42.646;23.368;2022-07-06T18:57:40;5.90;;;2.72;;
39998;SDS011;25696;42.646;23.368;2022-07-06T19:00:06;3.97;;;2.97;;
39998;SDS011;25696;42.646;23.368;2022-07-06T19:02:32;8.32;;;3.03;;
39998;SDS011;25696;42.646;23.368;2022-07-06T19:04:58;4.82;;;3.30;;
39998;SDS011;25696;42.646;23.368;2022-07-06T19:07:23;3.92;;;3.25;;
39998;SDS011;25696;42.646;23.368;2022-07-06T19:09:49;9.48;;;6.88;;
39998;SDS011;25696;42.646;23.368;2022-07-06T19:14:40;7.68;;;5.50;;
39998;SDS011;25696;42.646;23.368;2022-07-06T19:17:05;8.35;;;5.40;;
39998;SDS011;25696;42.646;23.368;2022-07-06T19:19:31;9.13;;;6.93;;
39998;SDS011;25696;42.646;23.368;2022-07-06T19:21:57;7.63;;;3.88;;
39998;SDS011;25696;42.646;23.368;2022-07-06T19:24:23;5.60;;;4.10;;
39998;SDS011;25696;42.646;23.368;2022-07-06T19:26:48;20.98;;;14.45;;
39998;SDS011;25696;42.646;23.368;2022-07-06T19:29:14;12.27;;;8.88;;
39998;SDS011;25696;42.646;23.368;2022-07-06T19:31:40;10.60;;;4.45;;
39998;SDS011;25696;42.646;23.368;2022-07-06T19:34:05;9.40;;;4.00;;
39998;SDS011;25696;42.646;23.368;2022-07-06T19:36:31;7.25;;;4.13;;
39998;SDS011;25696;42.646;23.368;2022-07-06T19:38:57;5.05;;;3.80;;
39998;SDS011;25696;42.646;23.368;2022-07-06T19:41:23;5.18;;;4.00;;
39998;SDS011;25696;42.646;23.368;2022-07-06T19:43:49;7.68;;;6.65;;
39998;SDS011;25696;42.646;23.368;2022-07-06T19:46:16;11.43;;;7.07;;
39998;SDS011;25696;42.646;23.368;2022-07-06T19:48:41;6.22;;;4.78;;
39998;SDS011;25696;42.646;23.368;2022-07-06T19:51:07;5.43;;;4.47;;
39998;SDS011;25696;42.646;23.368;2022-07-06T19:53:34;7.75;;;4.60;;
39998;SDS011;25696;42.646;23.368;2022-07-06T19:56:00;4.60;;;4.20;;
39998;SDS011;25696;42.646;23.368;2022-07-06T19:58:27;6.50;;;5.22;;
39998;SDS011;25696;42.646;23.368;2022-07-06T20:00:53;5.13;;;4.65;;
39998;SDS011;25696;42.646;23.368;2022-07-06T20:03:19;7.68;;;6.18;;
39998;SDS011;25696;42.646;23.368;2022-07-06T20:05:45;6.03;;;5.03;;
39998;SDS011;25696;42.646;23.368;2022-07-06T20:08:11;7.20;;;5.07;;
39998;SDS011;25696;42.646;23.368;2022-07-06T20:10:37;6.63;;;5.32;;
39998;SDS011;25696;42.646;23.368;2022-07-06T20:13:07;9.80;;;7.00;;
39998;SDS011;25696;42.646;23.368;2022-07-06T20:15:33;9.48;;;6.07;;
39998;SDS011;25696;42.646;23.368;2022-07-06T20:18:00;11.55;;;5.60;;
39998;SDS011;25696;42.646;23.368;2022-07-06T20:20:29;5.53;;;4.70;;
39998;SDS011;25696;42.646;23.368;2022-07-06T20:22:56;7.13;;;5.53;;
39998;SDS011;25696;42.646;23.368;2022-07-06T20:25:22;7.88;;;4.45;;
39998;SDS011;25696;42.646;23.368;2022-07-06T20:27:47;7.53;;;5.10;;
39998;SDS011;25696;42.646;23.368;2022-07-06T20:30:13;9.73;;;4.90;;
39998;SDS011;25696;42.646;23.368;2022-07-06T20:32:38;5.55;;;4.93;;
39998;SDS011;25696;42.646;23.368;2022-07-06T20:35:05;11.43;;;9.00;;
39998;SDS011;25696;42.646;23.368;2022-07-06T20:37:32;8.55;;;5.75;;
39998;SDS011;25696;42.646;23.368;2022-07-06T20:39:58;5.05;;;4.57;;
39998;SDS011;25696;42.646;23.368;2022-07-06T20:42:23;8.20;;;5.10;;
39998;SDS011;25696;42.646;23.368;2022-07-06T20:44:49;9.93;;;8.23;;
39998;SDS011;25696;42.646;23.368;2022-07-06T20:47:14;6.32;;;5.40;;
39998;SDS011;25696;42.646;23.368;2022-07-06T20:49:41;9.50;;;8.60;;
39998;SDS011;25696;42.646;23.368;2022-07-06T20:52:08;5.32;;;4.70;;
39998;SDS011;25696;42.646;23.368;2022-07-06T20:54:34;9.35;;;4.22;;
39998;SDS011;25696;42.646;23.368;2022-07-06T20:56:59;19.52;;;14.43;;
39998;SDS011;25696;42.646;23.368;2022-07-06T20:59:25;8.00;;;6.72;;
39998;SDS011;25696;42.646;23.368;2022-07-06T21:01:51;4.63;;;4.22;;
39998;SDS011;25696;42.646;23.368;2022-07-06T21:04:16;9.73;;;6.35;;
39998;SDS011;25696;42.646;23.368;2022-07-06T21:06:43;10.90;;;7.18;;
39998;SDS011;25696;42.646;23.368;2022-07-06T21:09:09;8.90;;;4.32;;
39998;SDS011;25696;42.646;23.368;2022-07-06T21:11:35;7.78;;;5.40;;